createdAt,value
2018-11-01T00:00:17.133Z,4.90
2018-11-01T00:02:46.437Z,4.80
2018-11-01T00:05:16.118Z,4.80
2018-11-01T00:07:45.546Z,4.90
2018-11-01T00:10:15.030Z,5.00
2018-11-01T00:12:44.668Z,5.00
2018-11-01T00:15:14.857Z,4.80
2018-11-01T00:17:44.014Z,4.80
2018-11-01T00:20:13.978Z,4.70
2018-11-01T00:22:43.842Z,4.70
2018-11-01T00:25:13.777Z,4.70
2018-11-01T00:27:43.344Z,4.70
2018-11-01T00:30:12.583Z,4.60
2018-11-01T00:32:41.752Z,4.70
2018-11-01T00:35:10.906Z,4.60
2018-11-01T00:37:40.122Z,4.50
2018-11-01T00:40:12.674Z,4.60
2018-11-01T00:42:42.198Z,4.70
2018-11-01T00:45:12.051Z,4.70
2018-11-01T00:47:41.222Z,4.70
2018-11-01T00:50:14.998Z,4.70
2018-11-01T00:52:44.622Z,4.60
2018-11-01T00:55:14.369Z,4.60
2018-11-01T00:57:43.845Z,4.70
2018-11-01T01:00:14.866Z,4.60
2018-11-01T01:02:44.018Z,4.50
2018-11-01T01:05:13.362Z,4.30
2018-11-01T01:07:42.538Z,4.40
2018-11-01T01:10:14.616Z,4.60
2018-11-01T01:12:44.959Z,4.60
2018-11-01T01:15:14.251Z,4.50
2018-11-01T01:17:43.442Z,4.20
2018-11-01T01:20:15.938Z,4.10
2018-11-01T01:22:45.858Z,4.40
2018-11-01T01:25:16.382Z,4.60
2018-11-01T01:27:45.575Z,4.70
2018-11-01T01:30:16.985Z,4.50
2018-11-01T01:32:46.656Z,4.30
2018-11-01T01:35:16.131Z,4.20
2018-11-01T01:37:45.560Z,4.20
2018-11-01T01:40:14.707Z,4.40
2018-11-01T01:42:51.153Z,4.50
2018-11-01T01:45:20.991Z,4.50
2018-11-01T01:47:50.188Z,4.20
2018-11-01T01:50:19.891Z,4.20
2018-11-01T01:52:49.351Z,4.20
2018-11-01T01:55:18.495Z,4.30
2018-11-01T01:57:47.638Z,4.30
2018-11-01T02:00:18.258Z,4.20
2018-11-01T02:02:48.806Z,4.30
2018-11-01T02:05:18.041Z,4.30
2018-11-01T02:07:47.217Z,4.10
2018-11-01T02:10:17.318Z,4.10
2018-11-01T02:12:46.515Z,4.10
2018-11-01T02:15:17.225Z,4.30
2018-11-01T02:17:46.409Z,4.30
2018-11-01T02:20:16.742Z,4.00
2018-11-01T02:22:46.277Z,3.90
2018-11-01T02:25:15.448Z,3.70
2018-11-01T02:27:49.873Z,3.90
2018-11-01T02:30:19.687Z,4.00
2018-11-01T02:32:48.850Z,3.90
2018-11-01T02:35:19.106Z,3.80
2018-11-01T02:37:48.417Z,3.80
2018-11-01T02:40:17.912Z,3.90
2018-11-01T02:42:47.081Z,3.90
2018-11-01T02:45:16.592Z,3.90
2018-11-01T02:47:45.765Z,3.90
2018-11-01T02:50:15.327Z,3.70
2018-11-01T02:52:44.450Z,3.80
2018-11-01T02:55:13.601Z,3.90
2018-11-01T02:57:42.882Z,3.90
2018-11-01T03:00:13.969Z,4.00
2018-11-01T03:02:43.209Z,4.00
2018-11-01T03:05:12.961Z,3.90
2018-11-01T03:07:42.132Z,3.70
2018-11-01T03:10:12.697Z,3.80
2018-11-01T03:12:42.110Z,3.80
2018-11-01T03:15:12.316Z,3.80
2018-11-01T03:17:41.445Z,3.90
2018-11-01T03:20:11.652Z,4.00
2018-11-01T03:22:40.858Z,4.00
2018-11-01T03:25:10.448Z,3.80
2018-11-01T03:27:39.591Z,3.80
2018-11-01T03:30:09.787Z,3.90
2018-11-01T03:32:39.193Z,3.70
2018-11-01T03:35:09.317Z,3.70
2018-11-01T03:37:38.477Z,3.90
2018-11-01T03:40:08.978Z,4.00
2018-11-01T03:42:38.670Z,4.00
2018-11-01T03:45:09.365Z,3.90
2018-11-01T03:47:38.662Z,3.80
2018-11-01T03:50:08.034Z,3.80
2018-11-01T03:52:37.434Z,3.90
2018-11-01T03:55:09.729Z,4.10
2018-11-01T03:57:39.059Z,4.10
2018-11-01T04:00:10.809Z,4.20
2018-11-01T04:02:40.294Z,4.20
2018-11-01T04:05:09.449Z,4.20
2018-11-01T04:07:38.985Z,4.10
2018-11-01T04:10:10.171Z,4.10
2018-11-01T04:12:39.337Z,4.20
2018-11-01T04:15:11.639Z,4.20
2018-11-01T04:17:40.758Z,4.20
2018-11-01T04:20:11.569Z,4.30
2018-11-01T04:22:41.138Z,4.10
2018-11-01T04:25:10.309Z,4.10
2018-11-01T04:27:39.425Z,4.20
2018-11-01T04:30:09.083Z,4.20
2018-11-01T04:32:38.777Z,4.40
2018-11-01T04:35:08.233Z,4.30
2018-11-01T04:37:37.375Z,4.40
2018-11-01T04:40:07.242Z,4.40
2018-11-01T04:42:36.315Z,4.20
2018-11-01T04:45:06.454Z,4.40
2018-11-01T04:47:35.634Z,4.40
2018-11-01T04:50:05.242Z,4.40
2018-11-01T04:52:34.331Z,4.30
2018-11-01T04:55:10.307Z,4.30
2018-11-01T04:57:40.002Z,4.30
2018-11-01T05:00:11.674Z,4.40
2018-11-01T05:02:41.179Z,4.40
2018-11-01T05:05:10.309Z,4.30
2018-11-01T05:07:39.778Z,4.40
2018-11-01T05:10:10.625Z,4.30
2018-11-01T05:12:39.929Z,4.30
2018-11-01T05:15:09.645Z,4.40
2018-11-01T05:17:39.026Z,4.40
2018-11-01T05:20:09.888Z,4.40
2018-11-01T05:22:39.038Z,4.30
2018-11-01T05:25:08.776Z,4.30
2018-11-01T05:27:39.138Z,4.50
2018-11-01T05:30:10.054Z,4.70
2018-11-01T05:32:39.241Z,4.60
2018-11-01T05:35:09.319Z,4.60
2018-11-01T05:37:39.958Z,4.40
2018-11-01T05:40:10.315Z,4.50
2018-11-01T05:42:39.482Z,4.60
2018-11-01T05:45:08.618Z,4.70
2018-11-01T05:47:37.665Z,4.70
2018-11-01T05:50:07.085Z,4.70
2018-11-01T05:52:36.414Z,4.50
2018-11-01T05:55:06.230Z,4.60
2018-11-01T05:57:35.307Z,4.60
2018-11-01T06:00:06.320Z,4.70
2018-11-01T06:02:38.854Z,4.70
2018-11-01T06:05:08.576Z,4.70
2018-11-01T06:08:40.683Z,4.80
2018-11-01T06:11:09.758Z,4.90
2018-11-01T06:13:39.525Z,4.90
2018-11-01T06:16:08.701Z,4.80
2018-11-01T06:18:37.822Z,4.90
2018-11-01T06:21:06.914Z,5.00
2018-11-01T06:23:36.013Z,4.90
2018-11-01T06:26:05.189Z,4.90
2018-11-01T06:28:34.270Z,5.00
2018-11-01T06:31:03.394Z,5.00
2018-11-01T06:33:32.481Z,5.00
2018-11-01T06:36:04.499Z,5.10
2018-11-01T06:38:34.194Z,5.10
2018-11-01T06:41:03.405Z,5.10
2018-11-01T06:43:33.103Z,5.00
2018-11-01T06:46:02.163Z,5.10
2018-11-01T06:48:31.240Z,5.20
2018-11-01T06:51:00.359Z,5.20
2018-11-01T06:53:29.482Z,5.20
2018-11-01T06:55:58.582Z,5.30
2018-11-01T06:58:27.779Z,5.20
2018-11-01T07:00:56.842Z,5.30
2018-11-01T07:03:25.920Z,5.30
2018-11-01T07:05:55.010Z,5.30
2018-11-01T07:08:24.113Z,5.30
2018-11-01T07:10:53.254Z,5.30
2018-11-01T07:13:22.338Z,5.30
2018-11-01T07:15:51.429Z,5.40
2018-11-01T07:18:20.504Z,5.40
2018-11-01T07:20:49.665Z,5.50
2018-11-01T07:23:18.747Z,5.50
2018-11-01T07:25:47.911Z,5.50
2018-11-01T07:28:16.906Z,5.50
2018-11-01T07:30:45.997Z,5.60
2018-11-01T07:33:15.076Z,5.50
2018-11-01T07:35:44.164Z,5.60
2018-11-01T07:38:13.250Z,5.70
2018-11-01T07:40:42.442Z,5.70
2018-11-01T07:43:11.519Z,5.80
2018-11-01T07:45:40.586Z,5.80
2018-11-01T07:48:09.670Z,5.70
2018-11-01T07:50:38.826Z,5.70
2018-11-01T07:53:07.918Z,5.80
2018-11-01T07:55:36.995Z,5.90
2018-11-01T07:58:06.151Z,5.80
2018-11-01T08:00:35.248Z,5.80
2018-11-01T08:03:04.341Z,5.90
2018-11-01T08:05:33.431Z,6.00
2018-11-01T08:08:02.517Z,6.10
2018-11-01T08:10:31.626Z,6.20
2018-11-01T08:13:00.771Z,6.20
2018-11-01T08:15:29.858Z,6.40
2018-11-01T08:18:00.128Z,6.30
2018-11-01T08:20:29.339Z,6.30
2018-11-01T08:22:58.326Z,6.40
2018-11-01T08:25:27.402Z,6.40
2018-11-01T08:27:56.495Z,6.20
2018-11-01T08:30:25.569Z,6.30
2018-11-01T08:32:54.630Z,6.30
2018-11-01T08:35:23.803Z,6.40
2018-11-01T08:37:52.846Z,6.50
2018-11-01T08:40:22.016Z,6.70
2018-11-01T08:42:51.069Z,6.90
2018-11-01T08:45:20.146Z,6.80
2018-11-01T08:47:49.199Z,6.70
2018-11-01T08:50:18.731Z,6.70
2018-11-01T08:52:48.262Z,6.70
2018-11-01T08:55:17.393Z,6.70
2018-11-01T08:57:46.469Z,6.80
2018-11-01T09:00:15.782Z,6.90
2018-11-01T09:02:45.260Z,6.90
2018-11-01T09:05:14.790Z,7.00
2018-11-01T09:07:44.015Z,7.10
2018-11-01T09:10:14.562Z,7.20
2018-11-01T09:12:43.851Z,7.20
2018-11-01T09:15:14.350Z,7.30
2018-11-01T09:17:43.461Z,7.30
2018-11-01T09:20:13.054Z,7.40
2018-11-01T09:22:42.962Z,7.50
2018-11-01T09:25:12.112Z,7.70
2018-11-01T09:27:41.257Z,7.80
2018-11-01T09:30:13.330Z,7.90
2018-11-01T09:32:42.521Z,8.20
2018-11-01T09:35:12.336Z,9.20
2018-11-01T09:37:42.079Z,10.90
2018-11-01T09:40:12.692Z,11.90
2018-11-01T09:42:42.075Z,16.00
2018-11-01T09:45:11.207Z,21.30
2018-11-01T09:47:41.219Z,23.90
2018-11-01T09:50:10.904Z,24.70
2018-11-01T09:52:40.388Z,26.80
2018-11-01T09:55:09.518Z,26.50
2018-11-01T09:57:38.603Z,25.20
2018-11-01T10:00:09.974Z,28.10
2018-11-01T10:02:39.061Z,28.60
2018-11-01T10:05:08.842Z,30.20
2018-11-01T10:07:38.258Z,31.00
2018-11-01T10:10:09.288Z,26.90
2018-11-01T10:12:39.031Z,28.30
2018-11-01T10:15:08.947Z,30.60
2018-11-01T10:17:38.507Z,31.30
2018-11-01T10:20:09.254Z,29.20
2018-11-01T10:22:38.464Z,31.60
2018-11-01T10:25:08.674Z,31.40
2018-11-01T10:27:38.283Z,32.50
2018-11-01T10:30:11.386Z,30.20
2018-11-01T10:32:40.685Z,33.30
2018-11-01T10:35:09.802Z,28.90
2018-11-01T10:37:39.394Z,31.60
2018-11-01T10:40:11.744Z,30.70
2018-11-01T10:42:40.855Z,31.20
2018-11-01T10:45:10.340Z,31.30
2018-11-01T10:47:39.686Z,30.70
2018-11-01T10:50:11.882Z,31.80
2018-11-01T10:52:40.999Z,30.70
2018-11-01T10:55:11.669Z,31.10
2018-11-01T10:57:40.973Z,31.20
2018-11-01T11:00:16.506Z,29.10
2018-11-01T11:02:50.910Z,30.30
2018-11-01T11:05:21.078Z,30.80
2018-11-01T11:07:50.451Z,31.50
2018-11-01T11:10:19.848Z,29.20
2018-11-01T11:12:48.927Z,32.50
2018-11-01T11:15:18.003Z,33.60
2018-11-01T11:17:47.462Z,32.90
2018-11-01T11:20:16.732Z,32.90
2018-11-01T11:22:45.713Z,34.20
2018-11-01T11:25:14.769Z,33.30
2018-11-01T11:27:43.835Z,32.80
2018-11-01T11:30:13.567Z,32.10
2018-11-01T11:32:42.527Z,33.80
2018-11-01T11:35:11.915Z,33.20
2018-11-01T11:37:41.006Z,33.30
2018-11-01T11:40:16.799Z,32.10
2018-11-01T11:42:45.950Z,33.50
2018-11-01T11:45:15.006Z,33.40
2018-11-01T11:47:44.113Z,31.90
2018-11-01T11:50:13.985Z,34.50
2018-11-01T11:52:44.093Z,32.70
2018-11-01T11:55:13.222Z,31.80
2018-11-01T11:57:42.337Z,32.20
2018-11-01T12:00:13.720Z,32.20
2018-11-01T12:02:44.512Z,33.80
2018-11-01T12:05:13.610Z,32.60
2018-11-01T12:07:42.730Z,31.80
2018-11-01T12:10:12.759Z,33.00
2018-11-01T12:12:41.990Z,32.50
2018-11-01T12:15:11.063Z,34.70
2018-11-01T12:17:40.174Z,35.00
2018-11-01T12:20:11.214Z,33.70
2018-11-01T12:22:40.312Z,33.80
2018-11-01T12:25:09.793Z,32.80
2018-11-01T12:27:39.532Z,32.40
2018-11-01T12:30:11.232Z,32.90
2018-11-01T12:32:40.377Z,32.60
2018-11-01T12:35:10.144Z,32.60
2018-11-01T12:37:39.486Z,35.60
2018-11-01T12:40:09.994Z,31.60
2018-11-01T12:42:39.092Z,31.30
2018-11-01T12:45:10.023Z,28.90
2018-11-01T12:47:39.457Z,24.70
2018-11-01T12:50:10.577Z,23.00
2018-11-01T12:52:39.897Z,21.50
2018-11-01T12:55:09.030Z,21.10
2018-11-01T12:57:38.296Z,20.10
2018-11-01T13:00:08.998Z,19.60
2018-11-01T13:02:38.235Z,18.40
2018-11-01T13:05:07.335Z,17.80
2018-11-01T13:07:36.510Z,17.30
2018-11-01T13:10:05.740Z,17.10
2018-11-01T13:12:35.110Z,16.80
2018-11-01T13:15:04.594Z,16.50
2018-11-01T13:17:33.691Z,15.70
2018-11-01T13:20:02.808Z,15.60
2018-11-01T13:22:31.915Z,15.60
2018-11-01T13:25:00.990Z,15.40
2018-11-01T13:27:30.094Z,15.20
2018-11-01T13:29:59.232Z,15.20
2018-11-01T13:32:29.016Z,15.10
2018-11-01T13:34:58.253Z,14.80
2018-11-01T13:37:27.499Z,14.70
2018-11-01T13:39:56.778Z,14.40
2018-11-01T13:42:25.753Z,14.40
2018-11-01T13:44:54.838Z,14.10
2018-11-01T13:47:24.045Z,14.00
2018-11-01T13:49:53.126Z,14.30
2018-11-01T13:52:22.240Z,14.30
2018-11-01T13:54:51.395Z,14.20
2018-11-01T13:57:20.418Z,14.00
2018-11-01T13:59:49.475Z,13.80
2018-11-01T14:02:18.656Z,13.70
2018-11-01T14:04:47.716Z,13.60
2018-11-01T14:07:16.811Z,13.60
2018-11-01T14:09:47.004Z,13.60
2018-11-01T14:12:16.303Z,13.40
2018-11-01T14:14:45.766Z,13.20
2018-11-01T14:17:14.478Z,13.00
2018-11-01T14:19:43.759Z,13.10
2018-11-01T14:22:12.839Z,13.00
2018-11-01T14:24:41.918Z,13.20
2018-11-01T14:27:11.243Z,13.20
2018-11-01T14:29:40.246Z,13.30
2018-11-01T14:32:09.318Z,13.20
2018-11-01T14:34:38.386Z,13.20
2018-11-01T14:37:07.507Z,13.20
2018-11-01T14:39:36.570Z,13.20
2018-11-01T14:42:05.900Z,13.00
2018-11-01T14:44:35.029Z,13.10
2018-11-01T14:47:04.054Z,13.10
2018-11-01T14:49:33.141Z,13.00
2018-11-01T14:52:02.639Z,12.90
2018-11-01T14:54:32.538Z,12.70
2018-11-01T14:57:01.731Z,12.60
2018-11-01T14:59:31.753Z,12.50
2018-11-01T15:01:59.426Z,12.40
2018-11-01T15:04:28.901Z,12.30
2018-11-01T15:06:58.112Z,12.30
2018-11-01T15:09:27.199Z,12.30
2018-11-01T15:11:56.281Z,12.20
2018-11-01T15:14:25.374Z,12.10
2018-11-01T15:16:54.468Z,12.20
2018-11-01T15:19:24.070Z,12.20
2018-11-01T15:21:53.046Z,12.10
2018-11-01T15:24:22.142Z,11.90
2018-11-01T15:26:51.236Z,11.40
2018-11-01T15:29:20.421Z,11.40
2018-11-01T15:31:49.490Z,11.40
2018-11-01T15:34:18.589Z,11.40
2018-11-01T15:36:47.666Z,11.30
2018-11-01T15:39:16.799Z,11.20
2018-11-01T15:41:45.953Z,11.10
2018-11-01T15:44:15.386Z,11.00
2018-11-01T15:46:44.906Z,10.70
2018-11-01T15:49:14.015Z,10.50
2018-11-01T15:51:43.091Z,10.20
2018-11-01T15:54:12.338Z,10.10
2018-11-01T15:56:41.415Z,10.00
2018-11-01T15:59:10.745Z,10.20
2018-11-01T16:01:39.795Z,10.30
2018-11-01T16:04:08.954Z,10.40
2018-11-01T16:06:37.934Z,9.90
2018-11-01T16:09:10.104Z,9.90
2018-11-01T16:11:39.207Z,9.60
2018-11-01T16:14:09.061Z,9.70
2018-11-01T16:16:38.696Z,9.80
2018-11-01T16:19:08.437Z,9.80
2018-11-01T16:21:37.475Z,9.40
2018-11-01T16:24:06.682Z,9.30
2018-11-01T16:26:35.775Z,9.10
2018-11-01T16:29:04.874Z,9.00
2018-11-01T16:31:33.935Z,9.10
2018-11-01T16:34:03.032Z,9.20
2018-11-01T16:36:32.135Z,9.40
2018-11-01T16:39:01.226Z,9.60
2018-11-01T16:41:30.297Z,9.50
2018-11-01T16:43:59.353Z,9.20
2018-11-01T16:46:28.426Z,8.90
2018-11-01T16:48:57.708Z,9.20
2018-11-01T16:51:26.981Z,8.90
2018-11-01T16:53:56.125Z,9.00
2018-11-01T16:56:25.213Z,8.80
2018-11-01T16:58:54.321Z,8.80
2018-11-01T17:01:23.388Z,8.50
2018-11-01T17:03:52.490Z,8.40
2018-11-01T17:06:21.580Z,8.20
2018-11-01T17:08:50.732Z,8.40
2018-11-01T17:11:19.801Z,8.40
2018-11-01T17:13:48.932Z,8.10
2018-11-01T17:16:18.737Z,7.80
2018-11-01T17:18:48.262Z,7.60
2018-11-01T17:21:17.351Z,7.70
2018-11-01T17:23:46.437Z,7.60
2018-11-01T17:26:15.586Z,7.80
2018-11-01T17:28:44.776Z,7.70
2018-11-01T17:31:13.883Z,7.30
2018-11-01T17:33:42.993Z,7.00
2018-11-01T17:36:12.098Z,7.40
2018-11-01T17:38:41.178Z,7.40
2018-11-01T17:41:10.269Z,7.60
2018-11-01T17:43:40.458Z,7.70
2018-11-01T17:46:10.057Z,7.40
2018-11-01T17:48:39.097Z,7.40
2018-11-01T17:51:08.274Z,7.30
2018-11-01T17:53:37.307Z,6.90
2018-11-01T17:56:06.440Z,7.00
2018-11-01T17:58:35.498Z,7.00
2018-11-01T18:01:05.152Z,7.10
2018-11-01T18:03:35.551Z,7.40
2018-11-01T18:06:04.954Z,7.40
2018-11-01T18:08:34.123Z,7.30
2018-11-01T18:11:03.198Z,7.20
2018-11-01T18:13:32.272Z,7.20
2018-11-01T18:16:01.367Z,7.20
2018-11-01T18:18:30.420Z,7.00
2018-11-01T18:20:59.487Z,6.90
2018-11-01T18:23:28.624Z,6.90
2018-11-01T18:25:57.617Z,6.70
2018-11-01T18:28:26.717Z,6.90
2018-11-01T18:30:55.879Z,7.10
2018-11-01T18:33:24.890Z,7.00
2018-11-01T18:35:53.957Z,6.90
2018-11-01T18:38:23.880Z,7.00
2018-11-01T18:40:53.046Z,7.10
2018-11-01T18:43:22.105Z,7.10
2018-11-01T18:45:51.224Z,7.20
2018-11-01T18:48:20.498Z,7.20
2018-11-01T18:50:49.534Z,7.20
2018-11-01T18:53:18.636Z,7.30
2018-11-01T18:55:47.794Z,7.20
2018-11-01T18:58:16.899Z,7.10
2018-11-01T19:00:46.082Z,7.40
2018-11-01T19:03:15.158Z,7.40
2018-11-01T19:05:44.250Z,7.40
2018-11-01T19:08:13.346Z,7.40
2018-11-01T19:10:42.436Z,7.30
2018-11-01T19:13:11.742Z,7.30
2018-11-01T19:15:40.850Z,7.40
2018-11-01T19:18:09.919Z,7.40
2018-11-01T19:20:39.009Z,7.30
2018-11-01T19:23:08.099Z,7.30
2018-11-01T19:25:37.307Z,7.20
2018-11-01T19:28:06.434Z,7.10
2018-11-01T19:30:35.486Z,7.10
2018-11-01T19:33:04.916Z,7.20
2018-11-01T19:35:34.078Z,7.20
2018-11-01T19:38:03.165Z,7.30
2018-11-01T19:40:32.355Z,7.20
2018-11-01T19:43:01.369Z,7.20
2018-11-01T19:45:30.469Z,7.00
2018-11-01T19:47:59.622Z,6.80
2018-11-01T19:50:28.672Z,6.80
2018-11-01T19:52:57.763Z,6.50
2018-11-01T19:55:26.849Z,6.60
2018-11-01T19:57:56.004Z,6.50
2018-11-01T20:00:25.159Z,6.60
2018-11-01T20:02:54.293Z,6.60
2018-11-01T20:05:23.306Z,6.70
2018-11-01T20:07:52.542Z,6.60
2018-11-01T20:10:21.680Z,6.60
2018-11-01T20:12:50.694Z,6.30
2018-11-01T20:15:19.761Z,6.30
2018-11-01T20:17:48.796Z,6.10
2018-11-01T20:20:17.875Z,6.10
2018-11-01T20:22:47.883Z,5.80
2018-11-01T20:25:16.964Z,5.60
2018-11-01T20:27:46.137Z,5.80
2018-11-01T20:30:16.415Z,5.80
2018-11-01T20:32:45.786Z,6.00
2018-11-01T20:35:15.719Z,6.10
2018-11-01T20:37:45.239Z,6.00
2018-11-01T20:40:14.319Z,6.00
2018-11-01T20:42:43.806Z,6.10
2018-11-01T20:45:19.712Z,6.10
2018-11-01T20:47:48.858Z,5.90
2018-11-01T20:50:17.958Z,5.80
2018-11-01T20:52:47.000Z,5.90
2018-11-01T20:55:16.096Z,5.90
2018-11-01T20:57:45.242Z,5.90
2018-11-01T21:00:15.154Z,5.90
2018-11-01T21:02:44.239Z,5.80
2018-11-01T21:05:13.315Z,5.70
2018-11-01T21:07:42.400Z,5.60
2018-11-01T21:10:12.049Z,5.60
2018-11-01T21:12:41.402Z,5.60
2018-11-01T21:15:12.190Z,5.70
2018-11-01T21:17:41.516Z,5.60
2018-11-01T21:20:10.796Z,5.40
2018-11-01T21:22:40.215Z,5.50
2018-11-01T21:25:10.306Z,5.60
2018-11-01T21:27:39.475Z,5.70
2018-11-01T21:30:08.912Z,5.60
2018-11-01T21:32:38.086Z,5.60
2018-11-01T21:35:07.688Z,5.70
2018-11-01T21:37:36.894Z,5.80
2018-11-01T21:40:08.569Z,5.70
2018-11-01T21:42:37.796Z,5.50
2018-11-01T21:45:08.914Z,5.50
2018-11-01T21:47:38.010Z,5.50
2018-11-01T21:50:07.084Z,5.40
2018-11-01T21:52:37.039Z,5.40
2018-11-01T21:55:07.549Z,5.40
2018-11-01T21:57:36.645Z,5.50
2018-11-01T22:00:08.782Z,5.50
2018-11-01T22:02:38.246Z,5.60
2018-11-01T22:05:08.229Z,5.60
2018-11-01T22:07:37.886Z,5.70
2018-11-01T22:10:08.264Z,5.70
2018-11-01T22:12:37.500Z,5.30
2018-11-01T22:15:08.510Z,5.10
2018-11-01T22:17:37.829Z,5.10
2018-11-01T22:20:07.557Z,5.20
2018-11-01T22:22:36.842Z,5.10
2018-11-01T22:25:06.751Z,5.20
2018-11-01T22:27:35.902Z,5.20
2018-11-01T22:30:06.347Z,5.30
2018-11-01T22:32:35.462Z,5.10
2018-11-01T22:35:04.934Z,5.20
2018-11-01T22:37:34.033Z,5.20
2018-11-01T22:40:03.141Z,5.30
2018-11-01T22:42:32.265Z,5.30
2018-11-01T22:45:01.325Z,5.20
2018-11-01T22:47:30.509Z,5.40
2018-11-01T22:49:59.574Z,5.30
2018-11-01T22:52:28.671Z,5.30
2018-11-01T22:54:57.736Z,5.30
2018-11-01T22:57:26.870Z,5.10
2018-11-01T22:59:56.615Z,5.00
2018-11-01T23:02:25.694Z,4.80
2018-11-01T23:04:54.735Z,4.90
2018-11-01T23:07:23.798Z,5.10
2018-11-01T23:09:53.110Z,4.90
2018-11-01T23:12:22.169Z,5.10
2018-11-01T23:14:51.239Z,4.90
2018-11-01T23:17:20.319Z,4.80
2018-11-01T23:19:49.414Z,4.80
2018-11-01T23:22:18.437Z,4.70
2018-11-01T23:24:47.529Z,4.90
2018-11-01T23:27:16.772Z,4.80
2018-11-01T23:29:46.054Z,4.80
2018-11-01T23:32:15.130Z,4.90
2018-11-01T23:34:44.218Z,4.70
2018-11-01T23:37:18.494Z,4.80
2018-11-01T23:39:52.990Z,4.80
2018-11-01T23:42:27.426Z,4.90
2018-11-01T23:45:01.746Z,4.90
2018-11-01T23:47:36.175Z,4.50
2018-11-01T23:50:11.974Z,4.60
2018-11-01T23:52:42.526Z,4.50
2018-11-01T23:55:11.570Z,4.30
2018-11-01T23:57:40.639Z,4.50
